createdAt,value
2019-03-19T00:02:28.075Z,100529.80
2019-03-19T00:04:57.509Z,100536.27
2019-03-19T00:07:26.829Z,100546.59
2019-03-19T00:09:56.203Z,100543.14
2019-03-19T00:12:25.608Z,100549.14
2019-03-19T00:14:54.994Z,100553.47
2019-03-19T00:17:24.309Z,100551.19
2019-03-19T00:19:53.687Z,100556.33
2019-03-19T00:22:25.597Z,100558.38
2019-03-19T00:24:54.177Z,100557.83
2019-03-19T00:27:23.725Z,100553.39
2019-03-19T00:29:53.325Z,100562.76
2019-03-19T00:32:22.711Z,100569.09
2019-03-19T00:34:52.050Z,100568.58
2019-03-19T00:37:21.556Z,100573.41
2019-03-19T00:39:51.190Z,100576.84
2019-03-19T00:42:20.767Z,100577.80
2019-03-19T00:44:50.113Z,100582.98
2019-03-19T00:47:19.509Z,100586.41
2019-03-19T00:49:48.926Z,100583.39
2019-03-19T00:52:18.319Z,100588.08
2019-03-19T00:54:47.718Z,100591.61
2019-03-19T00:57:17.144Z,100605.84
2019-03-19T00:59:46.660Z,100608.40
2019-03-19T01:02:16.221Z,100610.53
2019-03-19T01:04:45.657Z,100615.19
2019-03-19T01:07:15.143Z,100613.44
2019-03-19T01:09:44.523Z,100615.13
2019-03-19T01:12:13.951Z,100623.36
2019-03-19T01:14:43.370Z,100635.41
2019-03-19T01:17:12.814Z,100632.84
2019-03-19T01:19:42.216Z,100645.77
2019-03-19T01:22:11.584Z,100649.64
2019-03-19T01:24:41.000Z,100650.47
2019-03-19T01:27:10.304Z,100651.80
2019-03-19T01:29:39.727Z,100654.00
2019-03-19T01:32:09.252Z,100655.77
2019-03-19T01:34:38.602Z,100650.67
2019-03-19T01:37:07.940Z,100652.88
2019-03-19T01:39:37.373Z,100660.38
2019-03-19T01:42:06.761Z,100662.20
2019-03-19T01:44:36.096Z,100665.30
2019-03-19T01:47:05.513Z,100666.62
2019-03-19T01:49:34.930Z,100660.95
2019-03-19T01:52:04.254Z,100667.41
2019-03-19T01:54:33.659Z,100676.00
2019-03-19T01:57:03.039Z,100675.13
2019-03-19T01:59:32.385Z,100673.76
2019-03-19T02:02:01.839Z,100688.44
2019-03-19T02:04:31.311Z,100687.18
2019-03-19T02:07:00.627Z,100694.94
2019-03-19T02:09:30.133Z,100700.11
2019-03-19T02:11:59.562Z,100703.52
2019-03-19T02:14:28.941Z,100708.70
2019-03-19T02:16:58.309Z,100710.52
2019-03-19T02:19:27.717Z,100713.97
2019-03-19T02:21:57.170Z,100718.27
2019-03-19T02:24:26.526Z,100723.00
2019-03-19T02:26:56.001Z,100723.92
2019-03-19T02:29:25.698Z,100729.97
2019-03-19T02:31:55.197Z,100730.46
2019-03-19T02:34:24.693Z,100733.16
2019-03-19T02:36:54.118Z,100737.12
2019-03-19T02:39:23.552Z,100735.47
2019-03-19T02:41:52.885Z,100745.85
2019-03-19T02:44:22.242Z,100744.23
2019-03-19T02:46:51.613Z,100749.89
2019-03-19T02:49:20.978Z,100749.98
2019-03-19T02:51:50.422Z,100755.61
2019-03-19T02:54:19.814Z,100754.83
2019-03-19T02:56:49.119Z,100757.84
2019-03-19T02:59:18.555Z,100761.77
2019-03-19T03:01:47.936Z,100762.19
2019-03-19T03:04:17.407Z,100760.92
2019-03-19T03:06:46.943Z,100765.27
2019-03-19T03:09:16.303Z,100774.29
2019-03-19T03:11:45.708Z,100774.73
2019-03-19T03:14:15.099Z,100779.87
2019-03-19T03:16:44.507Z,100781.98
2019-03-19T03:19:14.020Z,100787.55
2019-03-19T03:21:43.374Z,100791.80
2019-03-19T03:24:12.828Z,100803.39
2019-03-19T03:26:48.267Z,100802.95
2019-03-19T03:29:13.335Z,100805.47
2019-03-19T03:31:42.722Z,100806.28
2019-03-19T03:34:12.287Z,100804.97
2019-03-19T03:36:41.625Z,100810.50
2019-03-19T03:39:11.073Z,100818.66
2019-03-19T03:41:40.585Z,100819.02
2019-03-19T03:44:10.036Z,100821.54
2019-03-19T03:46:39.565Z,100818.96
2019-03-19T03:49:08.951Z,100825.35
2019-03-19T03:51:38.297Z,100823.19
2019-03-19T03:54:07.786Z,100829.63
2019-03-19T03:56:37.255Z,100841.67
2019-03-19T03:59:06.597Z,100853.23
2019-03-19T04:01:35.967Z,100854.53
2019-03-19T04:04:05.673Z,100855.87
2019-03-19T04:06:35.136Z,100861.46
2019-03-19T04:09:09.090Z,100865.33
2019-03-19T04:11:37.426Z,100863.19
2019-03-19T04:14:06.867Z,100870.05
2019-03-19T04:16:36.371Z,100872.22
2019-03-19T04:19:05.855Z,100873.94
2019-03-19T04:21:35.267Z,100872.22
2019-03-19T04:24:05.196Z,100870.50
2019-03-19T04:26:34.712Z,100873.50
2019-03-19T04:29:04.121Z,100876.89
2019-03-19T04:31:33.450Z,100873.02
2019-03-19T04:34:03.046Z,100879.03
2019-03-19T04:36:32.624Z,100883.75
2019-03-19T04:39:01.936Z,100891.49
2019-03-19T04:41:31.294Z,100894.08
2019-03-19T04:44:00.856Z,100903.97
2019-03-19T04:46:30.184Z,100903.98
2019-03-19T04:48:59.690Z,100911.71
2019-03-19T04:51:29.098Z,100925.05
2019-03-19T04:53:58.481Z,100929.80
2019-03-19T04:56:27.803Z,100936.25
2019-03-19T04:58:57.244Z,100936.25
2019-03-19T05:01:26.745Z,100937.57
2019-03-19T05:03:56.049Z,100945.73
2019-03-19T05:06:25.573Z,100945.70
2019-03-19T05:08:55.093Z,100954.67
2019-03-19T05:11:24.505Z,100957.69
2019-03-19T05:13:54.026Z,100967.19
2019-03-19T05:16:23.440Z,100969.34
2019-03-19T05:18:52.854Z,100981.77
2019-03-19T05:21:22.259Z,100982.63
2019-03-19T05:23:51.731Z,100977.94
2019-03-19T05:26:21.191Z,100981.38
2019-03-19T05:28:50.589Z,100987.80
2019-03-19T05:31:19.923Z,100989.08
2019-03-19T05:33:49.328Z,100993.81
2019-03-19T05:36:18.799Z,100998.11
2019-03-19T05:38:48.203Z,101004.94
2019-03-19T05:41:17.555Z,101012.63
2019-03-19T05:43:46.946Z,101015.95
2019-03-19T05:46:16.320Z,101020.13
2019-03-19T05:48:45.750Z,101016.55
2019-03-19T05:51:15.151Z,101023.28
2019-03-19T05:53:44.499Z,101029.25
2019-03-19T05:56:13.952Z,101031.78
2019-03-19T05:58:43.750Z,101036.48
2019-03-19T06:01:13.256Z,101044.95
2019-03-19T06:03:42.609Z,101052.53
2019-03-19T06:06:12.042Z,101050.31
2019-03-19T06:08:41.409Z,101036.43
2019-03-19T06:11:10.766Z,101050.99
2019-03-19T06:13:40.249Z,101055.07
2019-03-19T06:16:10.009Z,101055.93
2019-03-19T06:18:39.449Z,101058.91
2019-03-19T06:21:08.770Z,101066.19
2019-03-19T06:23:38.274Z,101064.98
2019-03-19T06:26:07.838Z,101068.09
2019-03-19T06:28:37.212Z,101074.11
2019-03-19T06:31:06.660Z,101077.31
2019-03-19T06:33:36.012Z,101081.95
2019-03-19T06:36:05.389Z,101085.66
2019-03-19T06:38:34.963Z,101090.73
2019-03-19T06:41:04.345Z,101095.81
2019-03-19T06:43:33.749Z,101096.44
2019-03-19T06:46:03.234Z,101103.70
2019-03-19T06:48:32.614Z,101102.51
2019-03-19T06:51:02.038Z,101101.22
2019-03-19T06:53:31.609Z,101107.63
2019-03-19T06:56:01.104Z,101107.91
2019-03-19T06:58:30.496Z,101114.11
2019-03-19T07:00:59.969Z,101111.27
2019-03-19T07:03:29.470Z,101111.27
2019-03-19T07:05:58.811Z,101118.48
2019-03-19T07:08:28.398Z,101109.98
2019-03-19T07:10:57.786Z,101111.48
2019-03-19T07:13:27.155Z,101114.20
2019-03-19T07:15:56.566Z,101111.45
2019-03-19T07:18:25.997Z,101111.27
2019-03-19T07:20:55.362Z,101117.89
2019-03-19T07:23:24.807Z,101121.61
2019-03-19T07:25:54.202Z,101124.95
2019-03-19T07:28:23.668Z,101128.20
2019-03-19T07:30:53.117Z,101120.65
2019-03-19T07:33:22.470Z,101127.66
2019-03-19T07:35:51.880Z,101135.47
2019-03-19T07:38:21.246Z,101140.17
2019-03-19T07:40:50.704Z,101146.32
2019-03-19T07:43:20.094Z,101151.49
2019-03-19T07:45:49.446Z,101159.50
2019-03-19T07:48:18.807Z,101168.80
2019-03-19T07:50:48.175Z,101169.53
2019-03-19T07:53:17.561Z,101178.11
2019-03-19T07:55:46.882Z,101181.50
2019-03-19T07:58:16.276Z,101184.78
2019-03-19T08:00:45.648Z,101183.63
2019-03-19T08:03:16.341Z,101180.70
2019-03-19T08:05:45.912Z,101185.92
2019-03-19T08:08:15.415Z,101183.30
2019-03-19T08:10:44.815Z,101187.80
2019-03-19T08:13:14.196Z,101192.84
2019-03-19T08:15:43.574Z,101194.60
2019-03-19T08:18:12.973Z,101195.73
2019-03-19T08:20:42.466Z,101204.69
2019-03-19T08:23:11.809Z,101207.35
2019-03-19T08:25:41.199Z,101211.90
2019-03-19T08:28:10.586Z,101214.92
2019-03-19T08:30:39.951Z,101218.70
2019-03-19T08:33:09.275Z,101224.52
2019-03-19T08:35:38.790Z,101223.34
2019-03-19T08:38:08.295Z,101231.15
2019-03-19T08:40:37.812Z,101238.48
2019-03-19T08:43:07.261Z,101239.12
2019-03-19T08:45:36.805Z,101240.61
2019-03-19T08:48:06.340Z,101242.95
2019-03-19T08:50:36.040Z,101247.29
2019-03-19T08:53:05.380Z,101243.03
2019-03-19T08:55:34.717Z,101249.89
2019-03-19T08:58:04.236Z,101245.88
2019-03-19T09:00:33.861Z,101245.10
2019-03-19T09:03:03.192Z,101256.69
2019-03-19T09:05:32.607Z,101258.91
2019-03-19T09:08:02.023Z,101258.63
2019-03-19T09:10:31.353Z,101261.87
2019-03-19T09:13:00.755Z,101266.90
2019-03-19T09:15:31.306Z,101270.27
2019-03-19T09:18:00.687Z,101266.98
2019-03-19T09:20:30.063Z,101268.61
2019-03-19T09:22:59.434Z,101275.41
2019-03-19T09:25:28.755Z,101275.45
2019-03-19T09:27:58.112Z,101275.03
2019-03-19T09:30:27.478Z,101277.75
2019-03-19T09:32:56.902Z,101280.89
2019-03-19T09:35:26.540Z,101283.69
2019-03-19T09:37:58.717Z,101285.88
2019-03-19T09:40:27.027Z,101293.52
2019-03-19T09:42:56.526Z,101287.72
2019-03-19T09:45:25.860Z,101291.15
2019-03-19T09:47:55.245Z,101295.17
2019-03-19T09:50:24.743Z,101298.69
2019-03-19T09:52:54.106Z,101307.36
2019-03-19T09:55:23.733Z,101308.92
2019-03-19T09:57:53.069Z,101310.64
2019-03-19T10:00:22.578Z,101312.09
2019-03-19T10:02:52.178Z,101317.86
2019-03-19T10:05:21.559Z,101320.16
2019-03-19T10:07:50.951Z,101321.53
2019-03-19T10:10:20.450Z,101316.20
2019-03-19T10:12:49.792Z,101324.84
2019-03-19T10:15:19.526Z,101325.45
2019-03-19T10:17:48.997Z,101328.75
2019-03-19T10:20:18.485Z,101332.47
2019-03-19T10:22:48.106Z,101330.45
2019-03-19T10:25:17.619Z,101204.62
2019-03-19T10:27:47.162Z,101328.00
2019-03-19T10:30:17.893Z,101324.28
2019-03-19T10:32:47.279Z,101326.13
2019-03-19T10:35:16.775Z,101322.94
2019-03-19T10:37:46.115Z,101321.83
2019-03-19T10:40:15.767Z,101332.51
2019-03-19T10:42:45.309Z,101327.83
2019-03-19T10:45:14.923Z,101331.98
2019-03-19T10:47:44.332Z,101337.14
2019-03-19T10:50:16.519Z,101337.11
2019-03-19T10:52:46.005Z,101344.94
2019-03-19T10:55:15.419Z,101355.36
2019-03-19T10:57:45.015Z,101349.19
2019-03-19T11:00:18.018Z,101354.38
2019-03-19T11:02:47.536Z,101358.59
2019-03-19T11:05:17.287Z,101360.45
2019-03-19T11:07:46.662Z,101364.23
2019-03-19T11:10:16.191Z,101364.52
2019-03-19T11:12:45.696Z,101363.89
2019-03-19T11:15:16.298Z,101370.95
2019-03-19T11:17:45.754Z,101366.19
2019-03-19T11:20:16.568Z,101364.38
2019-03-19T11:22:45.963Z,101361.28
2019-03-19T11:25:15.807Z,101363.67
2019-03-19T11:27:45.358Z,101360.59
2019-03-19T11:30:19.532Z,101363.58
2019-03-19T11:32:49.143Z,101361.63
2019-03-19T11:35:18.781Z,101358.86
2019-03-19T11:37:48.186Z,101365.27
2019-03-19T11:40:17.710Z,101368.87
2019-03-19T11:42:47.268Z,101378.73
2019-03-19T11:45:16.941Z,101376.09
2019-03-19T11:47:46.621Z,101379.13
2019-03-19T11:50:17.820Z,101379.44
2019-03-19T11:52:47.280Z,101381.80
2019-03-19T11:55:16.756Z,101382.69
2019-03-19T11:57:46.182Z,101386.39
2019-03-19T12:00:19.921Z,101390.39
2019-03-19T12:02:49.274Z,101390.31
2019-03-19T12:05:18.657Z,101399.27
2019-03-19T12:07:48.081Z,101395.95
2019-03-19T12:10:17.452Z,101403.19
2019-03-19T12:12:46.836Z,101390.80
2019-03-19T12:15:16.377Z,101405.57
2019-03-19T12:17:45.878Z,101405.34
2019-03-19T12:20:15.460Z,101409.22
2019-03-19T12:22:44.911Z,101414.04
2019-03-19T12:25:14.263Z,101412.06
2019-03-19T12:27:43.663Z,101417.51
2019-03-19T12:30:21.693Z,101422.09
2019-03-19T12:32:44.548Z,101421.53
2019-03-19T12:35:15.548Z,101427.80
2019-03-19T12:37:44.958Z,101434.30
2019-03-19T12:40:14.536Z,101437.06
2019-03-19T12:42:43.921Z,101438.06
2019-03-19T12:45:14.655Z,101443.62
2019-03-19T12:47:44.086Z,101448.13
2019-03-19T12:50:15.420Z,101445.89
2019-03-19T12:52:44.762Z,101451.11
2019-03-19T12:55:14.343Z,101449.10
2019-03-19T12:57:43.700Z,101452.16
2019-03-19T13:00:17.889Z,101454.89
2019-03-19T13:02:47.302Z,101449.71
2019-03-19T13:05:16.639Z,101463.41
2019-03-19T13:07:46.037Z,101456.91
2019-03-19T13:10:17.041Z,101454.75
2019-03-19T13:12:46.553Z,101454.04
2019-03-19T13:15:19.115Z,101455.23
2019-03-19T13:17:47.833Z,101449.74
2019-03-19T13:20:17.276Z,101454.89
2019-03-19T13:22:46.814Z,101449.70
2019-03-19T13:25:16.996Z,101456.55
2019-03-19T13:27:46.518Z,101461.80
2019-03-19T13:30:17.789Z,101464.19
2019-03-19T13:32:47.165Z,101465.68
2019-03-19T13:35:16.521Z,101467.66
2019-03-19T13:37:45.903Z,101477.70
2019-03-19T13:40:16.249Z,101470.69
2019-03-19T13:42:45.603Z,101473.45
2019-03-19T13:45:15.488Z,101478.34
2019-03-19T13:47:44.892Z,101480.61
2019-03-19T13:50:14.522Z,101482.48
2019-03-19T13:52:44.069Z,101484.86
2019-03-19T13:55:15.593Z,101482.36
2019-03-19T13:57:45.023Z,101478.55
2019-03-19T14:00:15.011Z,101485.56
2019-03-19T14:02:44.505Z,101496.76
2019-03-19T14:05:14.230Z,101511.73
2019-03-19T14:07:43.804Z,101503.22
2019-03-19T14:10:13.183Z,101495.38
2019-03-19T14:12:42.920Z,101502.14
2019-03-19T14:15:13.845Z,101502.85
2019-03-19T14:17:43.378Z,101496.81
2019-03-19T14:20:14.433Z,101498.28
2019-03-19T14:22:45.452Z,101395.86
2019-03-19T14:25:15.125Z,101512.44
2019-03-19T14:27:44.694Z,101511.54
2019-03-19T14:30:17.580Z,101507.38
2019-03-19T14:32:47.008Z,101503.36
2019-03-19T14:35:16.519Z,101504.16
2019-03-19T14:37:45.961Z,101505.33
2019-03-19T14:40:16.859Z,101503.67
2019-03-19T14:42:46.381Z,101509.69
2019-03-19T14:45:17.612Z,101512.98
2019-03-19T14:47:47.100Z,101512.40
2019-03-19T14:50:16.687Z,101511.33
2019-03-19T14:52:46.647Z,101512.42
2019-03-19T14:55:16.018Z,101501.67
2019-03-19T14:57:45.384Z,101506.11
2019-03-19T15:00:15.873Z,101510.48
2019-03-19T15:02:45.218Z,101512.50
2019-03-19T15:05:14.936Z,101511.16
2019-03-19T15:07:44.283Z,101509.51
2019-03-19T15:10:14.728Z,101517.59
2019-03-19T15:12:44.231Z,101517.66
2019-03-19T15:15:15.884Z,101520.72
2019-03-19T15:17:45.359Z,101524.28
2019-03-19T15:20:16.763Z,101516.35
2019-03-19T15:22:46.165Z,101522.81
2019-03-19T15:25:15.597Z,101520.27
2019-03-19T15:27:44.955Z,101521.05
2019-03-19T15:30:16.143Z,101530.88
2019-03-19T15:32:45.629Z,101529.89
2019-03-19T15:35:14.934Z,101529.48
2019-03-19T15:37:44.459Z,101529.83
2019-03-19T15:40:14.090Z,101534.64
2019-03-19T15:42:43.457Z,101529.95
2019-03-19T15:45:13.084Z,101531.39
2019-03-19T15:47:42.582Z,101533.27
2019-03-19T15:50:13.652Z,101534.19
2019-03-19T15:52:43.334Z,101531.70
2019-03-19T15:55:14.038Z,101529.99
2019-03-19T15:57:43.726Z,101533.14
2019-03-19T16:00:14.711Z,101529.80
2019-03-19T16:02:44.214Z,101536.05
2019-03-19T16:05:13.705Z,101534.05
2019-03-19T16:07:43.542Z,101538.37
2019-03-19T16:10:13.349Z,101547.19
2019-03-19T16:12:42.810Z,101543.44
2019-03-19T16:15:13.101Z,101552.17
2019-03-19T16:17:42.467Z,101541.27
2019-03-19T16:20:15.152Z,101545.80
2019-03-19T16:22:45.322Z,101540.86
2019-03-19T16:25:15.711Z,101541.12
2019-03-19T16:27:45.113Z,101543.13
2019-03-19T16:30:14.985Z,101540.02
2019-03-19T16:32:44.528Z,101539.42
2019-03-19T16:35:14.090Z,101537.95
2019-03-19T16:37:43.653Z,101544.20
2019-03-19T16:40:15.477Z,101541.73
2019-03-19T16:42:44.843Z,101548.30
2019-03-19T16:45:18.331Z,101544.54
2019-03-19T16:47:48.055Z,101552.03
2019-03-19T16:50:17.437Z,101558.28
2019-03-19T16:52:46.827Z,101558.36
2019-03-19T16:55:16.417Z,101552.39
2019-03-19T16:57:45.824Z,101563.26
2019-03-19T17:00:16.843Z,101558.95
2019-03-19T17:02:46.428Z,101560.26
2019-03-19T17:05:16.675Z,101555.49
2019-03-19T17:07:46.122Z,101561.58
2019-03-19T17:10:16.115Z,101551.28
2019-03-19T17:12:45.648Z,101552.30
2019-03-19T17:15:15.681Z,101555.58
2019-03-19T17:17:45.394Z,101556.76
2019-03-19T17:20:14.934Z,101548.36
2019-03-19T17:22:44.418Z,101551.20
2019-03-19T17:25:14.787Z,101550.95
2019-03-19T17:27:44.142Z,101558.50
2019-03-19T17:30:18.857Z,101562.11
2019-03-19T17:32:48.325Z,101565.30
2019-03-19T17:35:17.763Z,101557.69
2019-03-19T17:37:47.148Z,101544.88
2019-03-19T17:40:16.617Z,101549.75
2019-03-19T17:42:46.097Z,101556.38
2019-03-19T17:45:15.556Z,101552.15
2019-03-19T17:47:45.029Z,101550.55
2019-03-19T17:50:16.481Z,101552.78
2019-03-19T17:52:46.112Z,101557.19
2019-03-19T17:55:15.635Z,101551.20
2019-03-19T17:57:45.081Z,101557.75
2019-03-19T18:00:18.225Z,101557.42
2019-03-19T18:02:47.632Z,101555.72
2019-03-19T18:05:17.050Z,101560.09
2019-03-19T18:07:46.518Z,101561.05
2019-03-19T18:10:15.963Z,101565.86
2019-03-19T18:12:45.378Z,101562.88
2019-03-19T18:15:14.902Z,101568.97
2019-03-19T18:17:44.406Z,101570.30
2019-03-19T18:20:14.096Z,101569.45
2019-03-19T18:22:44.098Z,101569.95
2019-03-19T18:25:13.955Z,101576.03
2019-03-19T18:27:43.657Z,101580.38
2019-03-19T18:30:14.001Z,101572.22
2019-03-19T18:32:43.632Z,101573.11
2019-03-19T18:35:13.434Z,101579.58
2019-03-19T18:37:42.927Z,101578.31
2019-03-19T18:40:12.513Z,101581.78
2019-03-19T18:42:42.058Z,101589.14
2019-03-19T18:45:11.623Z,101587.02
2019-03-19T18:47:41.368Z,101592.64
2019-03-19T18:50:12.385Z,101584.91
2019-03-19T18:52:42.553Z,101581.91
2019-03-19T18:55:12.389Z,101581.91
2019-03-19T18:57:41.868Z,101583.63
2019-03-19T19:00:13.369Z,101584.48
2019-03-19T19:02:49.782Z,101580.61
2019-03-19T19:05:14.337Z,101579.34
2019-03-19T19:07:43.797Z,101579.34
2019-03-19T19:10:13.340Z,101584.91
2019-03-19T19:12:43.076Z,101584.91
2019-03-19T19:15:13.941Z,101576.73
2019-03-19T19:17:43.924Z,101582.78
2019-03-19T19:20:14.230Z,101584.47
2019-03-19T19:22:44.310Z,101578.87
2019-03-19T19:25:15.195Z,101574.14
2019-03-19T19:27:45.052Z,101567.67
2019-03-19T19:30:16.892Z,101575.84
2019-03-19T19:32:46.384Z,101570.68
2019-03-19T19:35:16.171Z,101581.40
2019-03-19T19:37:45.928Z,101580.55
2019-03-19T19:40:15.653Z,101579.69
2019-03-19T19:42:45.332Z,101577.94
2019-03-19T19:45:15.503Z,101580.92
2019-03-19T19:47:45.561Z,101580.91
2019-03-19T19:50:15.778Z,101571.84
2019-03-19T19:52:45.222Z,101565.31
2019-03-19T19:55:16.390Z,101570.03
2019-03-19T19:57:46.386Z,101574.75
2019-03-19T20:00:16.922Z,101572.16
2019-03-19T20:02:47.252Z,101578.17
2019-03-19T20:05:17.300Z,101578.53
2019-03-19T20:07:46.996Z,101569.05
2019-03-19T20:10:17.750Z,101560.45
2019-03-19T20:12:47.266Z,101573.33
2019-03-19T20:15:16.741Z,101571.52
2019-03-19T20:17:46.549Z,101569.73
2019-03-19T20:20:17.391Z,101564.98
2019-03-19T20:22:46.889Z,101557.67
2019-03-19T20:25:17.418Z,101557.62
2019-03-19T20:27:47.002Z,101557.09
2019-03-19T20:30:17.927Z,101556.61
2019-03-19T20:32:47.440Z,101553.58
2019-03-19T20:35:16.858Z,101548.85
2019-03-19T20:37:46.420Z,101548.85
2019-03-19T20:40:16.280Z,101541.95
2019-03-19T20:42:46.332Z,101550.39
2019-03-19T20:45:16.088Z,101550.39
2019-03-19T20:47:45.517Z,101551.67
2019-03-19T20:50:17.607Z,101542.14
2019-03-19T20:52:47.397Z,101539.94
2019-03-19T20:55:17.206Z,101539.94
2019-03-19T20:57:46.813Z,101536.92
2019-03-19T21:00:16.956Z,101537.66
2019-03-19T21:02:46.338Z,101537.66
2019-03-19T21:05:16.032Z,101545.72
2019-03-19T21:07:45.633Z,101541.83
2019-03-19T21:10:17.020Z,101541.83
2019-03-19T21:12:46.544Z,101539.67
2019-03-19T21:15:20.995Z,101395.63
2019-03-19T21:17:50.544Z,101533.42
2019-03-19T21:20:20.036Z,101533.42
2019-03-19T21:22:49.644Z,101526.52
2019-03-19T21:25:19.059Z,101516.20
2019-03-19T21:27:48.924Z,101524.65
2019-03-19T21:30:18.587Z,101525.02
2019-03-19T21:32:48.359Z,101509.53
2019-03-19T21:35:21.194Z,101514.14
2019-03-19T21:37:50.627Z,101514.14
2019-03-19T21:40:20.353Z,101519.23
2019-03-19T21:42:49.828Z,101514.48
2019-03-19T21:45:19.373Z,101512.14
2019-03-19T21:47:48.773Z,101518.43
2019-03-19T21:50:18.206Z,101519.66
2019-03-19T21:52:47.600Z,101511.03
2019-03-19T21:55:16.931Z,101513.61
2019-03-19T21:57:46.616Z,101511.84
2019-03-19T22:00:17.515Z,101503.28
2019-03-19T22:02:47.276Z,101499.44
2019-03-19T22:05:16.677Z,101496.73
2019-03-19T22:07:46.192Z,101488.95
2019-03-19T22:10:16.198Z,101490.17
2019-03-19T22:12:45.937Z,101485.47
2019-03-19T22:15:16.948Z,101485.47
2019-03-19T22:17:46.846Z,101467.97
2019-03-19T22:20:16.332Z,101478.64
2019-03-19T22:22:45.981Z,101475.24
2019-03-19T22:25:15.653Z,101471.39
2019-03-19T22:27:45.204Z,101474.34
2019-03-19T22:30:16.129Z,101466.11
2019-03-19T22:32:45.868Z,101459.28
2019-03-19T22:35:15.402Z,101450.28
2019-03-19T22:37:45.026Z,101445.56
2019-03-19T22:40:14.999Z,101437.84
2019-03-19T22:42:44.403Z,101441.58
2019-03-19T22:45:14.537Z,101451.77
2019-03-19T22:47:43.912Z,101443.18
2019-03-19T22:50:13.821Z,101441.87
2019-03-19T22:52:43.200Z,101450.39
2019-03-19T22:55:12.691Z,101448.22
2019-03-19T22:57:42.092Z,101443.53
2019-03-19T23:00:26.933Z,101450.66
2019-03-19T23:02:56.385Z,101446.30
2019-03-19T23:05:25.873Z,101441.10
2019-03-19T23:07:55.266Z,101441.88
2019-03-19T23:10:24.653Z,101435.85
2019-03-19T23:12:54.327Z,101422.39
2019-03-19T23:15:23.723Z,101423.22
2019-03-19T23:17:53.138Z,101417.62
2019-03-19T23:20:22.630Z,101412.46
2019-03-19T23:22:52.077Z,101405.12
2019-03-19T23:25:21.861Z,101414.50
2019-03-19T23:27:51.202Z,101414.09
2019-03-19T23:30:20.550Z,101405.92
2019-03-19T23:32:49.909Z,101395.98
2019-03-19T23:35:19.308Z,101408.23
2019-03-19T23:37:48.690Z,101406.16
2019-03-19T23:40:18.230Z,101412.91
2019-03-19T23:42:47.701Z,101399.66
2019-03-19T23:45:17.231Z,101403.70
2019-03-19T23:47:46.681Z,101389.93
2019-03-19T23:50:16.063Z,101381.27
2019-03-19T23:52:45.539Z,101377.25
2019-03-19T23:55:14.895Z,101376.28
2019-03-19T23:57:44.421Z,101380.04
